createdAt,value
2018-12-25T00:02:42.090Z,4.10
2018-12-25T00:05:25.465Z,4.00
2018-12-25T00:08:09.148Z,4.00
2018-12-25T00:10:54.640Z,4.00
2018-12-25T00:13:38.120Z,3.90
2018-12-25T00:16:21.922Z,3.90
2018-12-25T00:19:06.618Z,3.90
2018-12-25T00:21:49.339Z,3.80
2018-12-25T00:24:33.495Z,3.80
2018-12-25T00:27:17.944Z,3.80
2018-12-25T00:30:01.751Z,3.80
2018-12-25T00:32:45.318Z,3.80
2018-12-25T00:35:28.152Z,3.80
2018-12-25T00:38:10.936Z,3.80
2018-12-25T00:40:54.857Z,3.80
2018-12-25T00:43:36.674Z,3.80
2018-12-25T00:46:26.767Z,3.70
2018-12-25T00:49:14.688Z,3.70
2018-12-25T00:51:53.424Z,3.70
2018-12-25T00:54:39.039Z,3.70
2018-12-25T00:57:25.249Z,3.60
2018-12-25T01:00:08.543Z,3.60
2018-12-25T01:02:51.817Z,3.60
2018-12-25T01:05:34.878Z,3.60
2018-12-25T01:08:18.081Z,3.70
2018-12-25T01:11:00.765Z,3.70
2018-12-25T01:13:45.699Z,3.70
2018-12-25T01:16:28.318Z,3.80
2018-12-25T01:19:11.598Z,3.70
2018-12-25T01:21:55.692Z,3.70
2018-12-25T01:24:55.978Z,3.70
2018-12-25T01:27:46.160Z,3.70
2018-12-25T01:30:29.184Z,3.70
2018-12-25T01:33:15.239Z,3.70
2018-12-25T01:36:04.007Z,3.70
2018-12-25T01:38:47.565Z,3.70
2018-12-25T01:41:31.549Z,3.70
2018-12-25T01:44:15.251Z,3.60
2018-12-25T01:46:59.145Z,3.60
2018-12-25T01:49:44.150Z,3.70
2018-12-25T01:52:27.271Z,3.70
2018-12-25T01:55:12.099Z,3.70
2018-12-25T01:57:55.933Z,3.60
2018-12-25T02:00:38.783Z,3.60
2018-12-25T02:03:22.765Z,3.60
2018-12-25T02:06:05.990Z,3.50
2018-12-25T02:08:49.287Z,3.50
2018-12-25T02:11:31.510Z,3.40
2018-12-25T02:14:15.890Z,3.40
2018-12-25T02:17:00.727Z,3.40
2018-12-25T02:19:44.973Z,3.40
2018-12-25T02:22:27.132Z,3.50
2018-12-25T02:25:10.173Z,3.40
2018-12-25T02:27:56.977Z,3.50
2018-12-25T02:30:39.483Z,3.40
2018-12-25T02:33:22.754Z,3.40
2018-12-25T02:36:06.671Z,3.40
2018-12-25T02:38:50.069Z,3.40
2018-12-25T02:41:34.432Z,3.40
2018-12-25T02:44:17.287Z,3.40
2018-12-25T02:47:00.456Z,3.30
2018-12-25T02:49:50.334Z,3.30
2018-12-25T02:52:38.259Z,3.30
2018-12-25T02:55:21.440Z,3.40
2018-12-25T02:58:04.828Z,3.30
2018-12-25T03:00:47.663Z,3.20
2018-12-25T03:03:30.510Z,3.20
2018-12-25T03:06:13.758Z,3.20
2018-12-25T03:08:57.284Z,3.20
2018-12-25T03:11:41.744Z,3.20
2018-12-25T03:14:25.979Z,3.10
2018-12-25T03:17:10.471Z,3.10
2018-12-25T03:19:59.883Z,3.10
2018-12-25T03:22:38.298Z,3.10
2018-12-25T03:25:20.447Z,3.10
2018-12-25T03:27:51.573Z,3.10
2018-12-25T03:30:41.891Z,3.10
2018-12-25T03:33:26.973Z,3.10
2018-12-25T03:36:10.210Z,3.00
2018-12-25T03:38:52.839Z,3.10
2018-12-25T03:41:37.043Z,3.10
2018-12-25T03:44:20.328Z,3.10
2018-12-25T03:46:51.600Z,3.10
2018-12-25T03:52:50.923Z,3.10
2018-12-25T03:55:34.115Z,3.10
2018-12-25T03:58:16.817Z,3.20
2018-12-25T04:00:59.142Z,3.10
2018-12-25T04:03:41.487Z,3.10
2018-12-25T04:06:23.483Z,3.00
2018-12-25T04:09:05.765Z,3.00
2018-12-25T04:11:47.726Z,3.10
2018-12-25T04:14:29.382Z,3.10
2018-12-25T04:17:12.385Z,3.10
2018-12-25T04:19:54.363Z,3.10
2018-12-25T04:22:36.335Z,3.20
2018-12-25T04:25:17.898Z,3.20
2018-12-25T04:28:00.145Z,3.20
2018-12-25T04:30:42.018Z,3.20
2018-12-25T04:33:24.754Z,3.20
2018-12-25T04:36:06.454Z,3.30
2018-12-25T04:38:48.523Z,3.30
2018-12-25T04:41:30.015Z,3.20
2018-12-25T04:44:12.800Z,3.20
2018-12-25T04:46:54.818Z,3.10
2018-12-25T04:49:37.751Z,3.10
2018-12-25T04:52:19.674Z,3.10
2018-12-25T04:55:01.648Z,3.10
2018-12-25T04:57:43.998Z,3.20
2018-12-25T05:00:26.748Z,3.20
2018-12-25T05:03:08.531Z,3.20
2018-12-25T05:05:50.508Z,3.20
2018-12-25T05:08:33.332Z,3.10
2018-12-25T05:11:15.254Z,3.20
2018-12-25T05:13:57.441Z,3.20
2018-12-25T05:16:39.575Z,3.20
2018-12-25T05:19:09.182Z,3.20
2018-12-25T05:21:58.129Z,3.20
2018-12-25T05:24:40.194Z,3.20
2018-12-25T05:27:22.337Z,3.20
2018-12-25T05:30:04.301Z,3.20
2018-12-25T05:32:46.365Z,3.10
2018-12-25T05:35:28.497Z,3.10
2018-12-25T05:38:10.626Z,3.10
2018-12-25T05:40:52.589Z,3.20
2018-12-25T05:43:35.348Z,3.20
2018-12-25T05:46:17.544Z,3.20
2018-12-25T05:48:59.214Z,3.20
2018-12-25T05:51:41.849Z,3.20
2018-12-25T05:54:24.593Z,3.10
2018-12-25T05:57:07.537Z,3.10
2018-12-25T05:59:49.117Z,3.10
2018-12-25T06:02:31.202Z,3.00
2018-12-25T06:05:13.049Z,3.00
2018-12-25T06:07:55.022Z,3.00
2018-12-25T06:10:36.841Z,3.10
2018-12-25T06:13:18.830Z,3.10
2018-12-25T06:16:00.836Z,3.00
2018-12-25T06:18:42.546Z,3.00
2018-12-25T06:21:24.838Z,3.00
2018-12-25T06:24:07.588Z,3.00
2018-12-25T06:26:49.413Z,2.90
2018-12-25T06:29:31.425Z,2.90
2018-12-25T06:32:13.394Z,2.90
2018-12-25T06:34:55.631Z,2.90
2018-12-25T06:37:37.609Z,2.90
2018-12-25T06:40:19.510Z,2.90
2018-12-25T06:43:01.349Z,2.90
2018-12-25T06:45:43.141Z,2.90
2018-12-25T06:48:25.463Z,2.90
2018-12-25T06:51:07.776Z,2.90
2018-12-25T06:53:49.654Z,2.90
2018-12-25T06:56:31.742Z,2.90
2018-12-25T06:59:13.985Z,2.90
2018-12-25T07:01:56.277Z,2.90
2018-12-25T07:04:39.124Z,2.90
2018-12-25T07:07:20.898Z,2.80
2018-12-25T07:10:02.894Z,2.80
2018-12-25T07:12:45.753Z,2.80
2018-12-25T07:15:33.150Z,2.80
2018-12-25T07:18:11.018Z,2.80
2018-12-25T07:20:53.209Z,2.80
2018-12-25T07:23:37.123Z,2.80
2018-12-25T07:26:19.251Z,2.70
2018-12-25T07:29:02.685Z,2.80
2018-12-25T07:31:48.086Z,2.80
2018-12-25T07:34:29.954Z,2.90
2018-12-25T07:37:13.228Z,2.90
2018-12-25T07:39:56.400Z,2.80
2018-12-25T07:42:40.299Z,2.80
2018-12-25T07:45:26.533Z,2.80
2018-12-25T07:48:08.514Z,2.80
2018-12-25T07:50:52.192Z,2.80
2018-12-25T07:56:16.445Z,2.80
2018-12-25T07:58:58.836Z,2.90
2018-12-25T08:01:43.666Z,2.90
2018-12-25T08:04:29.568Z,2.90
2018-12-25T08:07:12.133Z,2.90
2018-12-25T08:09:53.969Z,2.90
2018-12-25T08:12:36.817Z,2.90
2018-12-25T08:15:18.650Z,2.90
2018-12-25T08:18:00.708Z,2.90
2018-12-25T08:20:42.388Z,2.90
2018-12-25T08:23:22.433Z,2.80
2018-12-25T08:26:11.464Z,2.80
2018-12-25T08:28:53.625Z,2.90
2018-12-25T08:31:36.546Z,2.90
2018-12-25T08:34:18.594Z,3.00
2018-12-25T08:37:00.521Z,3.00
2018-12-25T08:39:42.441Z,3.00
2018-12-25T08:42:26.700Z,3.00
2018-12-25T08:45:08.970Z,3.10
2018-12-25T08:47:51.905Z,3.10
2018-12-25T08:50:34.530Z,3.10
2018-12-25T08:53:16.492Z,3.10
2018-12-25T08:55:58.189Z,3.20
2018-12-25T08:58:40.085Z,3.20
2018-12-25T09:01:21.971Z,3.20
2018-12-25T09:04:03.725Z,3.20
2018-12-25T09:06:46.323Z,3.20
2018-12-25T09:09:28.646Z,3.20
2018-12-25T09:12:11.646Z,3.20
2018-12-25T09:14:55.274Z,3.20
2018-12-25T09:17:37.327Z,3.20
2018-12-25T09:20:18.973Z,3.20
2018-12-25T09:23:01.049Z,3.20
2018-12-25T09:25:42.377Z,3.20
2018-12-25T09:28:24.246Z,3.30
2018-12-25T09:31:05.825Z,3.30
2018-12-25T09:33:47.574Z,3.30
2018-12-25T09:36:29.662Z,3.30
2018-12-25T09:39:11.629Z,3.30
2018-12-25T09:41:53.729Z,3.30
2018-12-25T09:44:36.589Z,3.30
2018-12-25T09:47:19.374Z,3.30
2018-12-25T09:50:02.134Z,3.30
2018-12-25T09:52:44.098Z,3.30
2018-12-25T09:55:26.998Z,3.30
2018-12-25T09:58:09.317Z,3.40
2018-12-25T10:00:52.190Z,3.40
2018-12-25T10:03:34.246Z,3.50
2018-12-25T10:06:16.378Z,3.40
2018-12-25T10:08:58.401Z,3.40
2018-12-25T10:11:44.349Z,3.40
2018-12-25T10:14:29.495Z,3.40
2018-12-25T10:17:11.001Z,3.40
2018-12-25T10:19:52.993Z,3.40
2018-12-25T10:22:35.699Z,3.50
2018-12-25T10:25:17.046Z,3.40
2018-12-25T10:27:59.925Z,3.50
2018-12-25T10:30:41.965Z,3.40
2018-12-25T10:33:23.986Z,3.50
2018-12-25T10:36:06.205Z,3.50
2018-12-25T10:38:48.459Z,3.60
2018-12-25T10:41:31.477Z,3.70
2018-12-25T10:44:13.026Z,3.60
2018-12-25T10:46:55.300Z,3.60
2018-12-25T10:49:37.845Z,3.60
2018-12-25T10:52:11.793Z,3.70
2018-12-25T10:55:01.084Z,3.70
2018-12-25T10:57:43.066Z,3.70
2018-12-25T11:00:25.965Z,3.60
2018-12-25T11:03:08.980Z,3.60
2018-12-25T11:05:51.300Z,3.70
2018-12-25T11:08:33.387Z,3.80
2018-12-25T11:11:15.170Z,3.80
2018-12-25T11:13:57.178Z,3.70
2018-12-25T11:16:40.105Z,3.60
2018-12-25T11:19:22.690Z,3.50
2018-12-25T11:22:05.302Z,3.50
2018-12-25T11:24:48.309Z,3.50
2018-12-25T11:27:30.306Z,3.50
2018-12-25T11:29:59.947Z,3.50
2018-12-25T11:32:49.494Z,3.50
2018-12-25T11:35:32.236Z,3.60
2018-12-25T11:38:14.273Z,3.50
2018-12-25T11:40:57.093Z,3.60
2018-12-25T11:43:39.987Z,3.50
2018-12-25T11:46:22.339Z,3.50
2018-12-25T11:49:05.555Z,3.40
2018-12-25T11:51:48.443Z,3.40
2018-12-25T11:54:30.975Z,3.40
2018-12-25T11:57:13.129Z,3.50
2018-12-25T11:59:56.002Z,3.50
2018-12-25T12:02:38.993Z,3.50
2018-12-25T12:05:20.895Z,3.60
2018-12-25T12:08:03.425Z,3.60
2018-12-25T12:10:43.910Z,3.60
2018-12-25T12:13:33.463Z,3.60
2018-12-25T12:16:16.306Z,3.60
2018-12-25T12:18:57.909Z,3.70
2018-12-25T12:24:41.244Z,3.70
2018-12-25T12:27:23.260Z,3.70
2018-12-25T12:30:05.228Z,3.80
2018-12-25T12:32:47.178Z,3.90
2018-12-25T12:35:29.834Z,3.80
2018-12-25T12:38:12.009Z,3.90
2018-12-25T12:40:54.803Z,3.90
2018-12-25T12:43:37.412Z,4.00
2018-12-25T12:46:20.246Z,4.00
2018-12-25T12:49:00.775Z,4.00
2018-12-25T12:51:50.284Z,3.90
2018-12-25T12:54:32.266Z,4.00
2018-12-25T12:57:15.073Z,4.00
2018-12-25T12:59:57.465Z,4.00
2018-12-25T13:02:40.414Z,4.00
2018-12-25T13:05:24.397Z,4.00
2018-12-25T13:08:06.626Z,4.10
2018-12-25T13:17:11.209Z,4.30
2018-12-25T13:19:52.949Z,4.20
2018-12-25T13:22:35.830Z,4.20
2018-12-25T13:25:17.834Z,4.20
2018-12-25T13:27:59.728Z,4.20
2018-12-25T13:30:42.034Z,4.20
2018-12-25T13:33:24.843Z,4.30
2018-12-25T13:36:07.261Z,4.20
2018-12-25T13:38:49.231Z,4.20
2018-12-25T13:41:31.256Z,4.20
2018-12-25T13:44:13.753Z,4.10
2018-12-25T13:46:55.446Z,4.10
2018-12-25T13:49:37.558Z,4.20
2018-12-25T13:52:20.237Z,4.10
2018-12-25T13:55:02.415Z,4.10
2018-12-25T13:57:45.106Z,4.10
2018-12-25T14:00:27.670Z,4.10
2018-12-25T14:03:10.519Z,4.10
2018-12-25T14:05:52.553Z,4.10
2018-12-25T14:08:35.158Z,4.10
2018-12-25T14:11:18.237Z,4.20
2018-12-25T14:14:00.217Z,4.20
2018-12-25T14:16:42.186Z,4.10
2018-12-25T14:19:24.478Z,4.10
2018-12-25T14:22:07.367Z,4.20
2018-12-25T14:24:50.203Z,4.10
2018-12-25T14:27:32.597Z,4.00
2018-12-25T14:30:15.553Z,4.00
2018-12-25T14:32:58.318Z,4.00
2018-12-25T14:35:41.109Z,4.00
2018-12-25T14:38:23.159Z,4.00
2018-12-25T14:41:06.032Z,4.00
2018-12-25T14:43:48.849Z,4.00
2018-12-25T14:49:31.317Z,4.00
2018-12-25T14:52:13.013Z,3.90
2018-12-25T14:54:54.527Z,4.00
2018-12-25T14:57:37.649Z,3.90
2018-12-25T15:00:20.570Z,3.90
2018-12-25T15:03:02.904Z,3.90
2018-12-25T15:05:44.993Z,3.90
2018-12-25T15:08:26.989Z,3.90
2018-12-25T15:11:09.026Z,3.80
2018-12-25T15:13:51.640Z,3.80
2018-12-25T15:16:34.299Z,3.80
2018-12-25T15:19:16.615Z,3.80
2018-12-25T15:21:59.580Z,3.80
2018-12-25T15:24:41.691Z,3.80
2018-12-25T15:27:24.339Z,3.80
2018-12-25T15:30:05.978Z,3.80
2018-12-25T15:32:55.487Z,3.80
2018-12-25T15:35:38.137Z,3.70
2018-12-25T15:38:20.122Z,3.70
2018-12-25T15:41:02.366Z,3.70
2018-12-25T15:43:45.183Z,3.70
2018-12-25T15:46:27.794Z,3.70
2018-12-25T15:49:09.825Z,3.70
2018-12-25T15:51:51.897Z,3.70
2018-12-25T15:54:34.915Z,3.70
2018-12-25T15:57:17.889Z,3.60
2018-12-25T15:59:59.733Z,3.60
2018-12-25T16:02:41.954Z,3.50
2018-12-25T16:05:24.629Z,3.40
2018-12-25T16:08:06.716Z,3.40
2018-12-25T16:10:49.198Z,3.40
2018-12-25T16:13:32.105Z,3.40
2018-12-25T16:16:15.085Z,3.40
2018-12-25T16:18:57.789Z,3.30
2018-12-25T16:21:40.077Z,3.30
2018-12-25T16:24:27.423Z,3.30
2018-12-25T16:27:06.809Z,3.30
2018-12-25T16:29:48.984Z,3.30
2018-12-25T16:32:31.730Z,3.30
2018-12-25T16:35:14.509Z,3.20
2018-12-25T16:37:56.575Z,3.20
2018-12-25T16:40:38.404Z,3.10
2018-12-25T16:43:20.713Z,3.00
2018-12-25T16:46:02.556Z,3.00
2018-12-25T16:48:44.297Z,3.00
2018-12-25T16:51:26.194Z,3.00
2018-12-25T16:54:08.165Z,3.00
2018-12-25T16:56:50.922Z,3.00
2018-12-25T16:59:32.787Z,2.90
2018-12-25T17:02:15.478Z,2.90
2018-12-25T17:04:57.729Z,2.80
2018-12-25T17:07:40.005Z,2.80
2018-12-25T17:10:21.617Z,2.70
2018-12-25T17:13:04.558Z,2.70
2018-12-25T17:15:47.340Z,2.70
2018-12-25T17:18:29.156Z,2.70
2018-12-25T17:21:11.126Z,2.70
2018-12-25T17:23:53.118Z,2.60
2018-12-25T17:26:34.877Z,2.60
2018-12-25T17:29:16.745Z,2.60
2018-12-25T17:31:59.666Z,2.50
2018-12-25T17:34:41.621Z,2.50
2018-12-25T17:37:23.665Z,2.40
2018-12-25T17:40:05.119Z,2.40
2018-12-25T17:42:46.678Z,2.40
2018-12-25T17:45:28.125Z,2.40
2018-12-25T17:48:11.010Z,2.30
2018-12-25T17:50:52.790Z,2.30
2018-12-25T17:53:34.972Z,2.30
2018-12-25T17:56:16.438Z,2.30
2018-12-25T17:58:58.391Z,2.30
2018-12-25T18:01:40.098Z,2.20
2018-12-25T18:04:22.186Z,2.20
2018-12-25T18:07:04.622Z,2.20
2018-12-25T18:09:34.325Z,2.10
2018-12-25T18:12:03.961Z,2.20
2018-12-25T18:14:53.026Z,2.10
2018-12-25T18:17:35.001Z,2.10
2018-12-25T18:20:18.159Z,2.10
2018-12-25T18:22:59.994Z,2.10
2018-12-25T18:25:29.695Z,2.00
2018-12-25T18:27:59.471Z,2.00
2018-12-25T18:30:29.034Z,2.00
2018-12-25T18:32:58.658Z,2.00
2018-12-25T18:35:28.256Z,2.00
2018-12-25T18:37:57.882Z,1.90
2018-12-25T18:40:27.491Z,1.80
2018-12-25T18:42:57.115Z,1.80
2018-12-25T18:45:26.808Z,1.70
2018-12-25T18:47:57.300Z,1.80
2018-12-25T18:50:26.870Z,1.70
2018-12-25T18:52:56.498Z,1.80
2018-12-25T18:55:26.203Z,1.70
2018-12-25T18:57:55.817Z,1.70
2018-12-25T19:00:25.413Z,1.70
2018-12-25T19:02:55.145Z,1.70
2018-12-25T19:05:24.736Z,1.70
2018-12-25T19:07:54.368Z,1.70
2018-12-25T19:10:23.982Z,1.70
2018-12-25T19:12:53.626Z,1.70
2018-12-25T19:15:24.077Z,1.70
2018-12-25T19:17:54.065Z,1.60
2018-12-25T19:20:23.732Z,1.60
2018-12-25T19:22:53.282Z,1.60
2018-12-25T19:25:22.917Z,1.60
2018-12-25T19:27:52.526Z,1.60
2018-12-25T19:30:23.674Z,1.60
2018-12-25T19:32:53.751Z,1.60
2018-12-25T19:35:23.476Z,1.60
2018-12-25T19:37:53.077Z,1.60
2018-12-25T19:40:22.968Z,1.50
2018-12-25T19:42:52.612Z,1.40
2018-12-25T19:45:23.805Z,1.40
2018-12-25T19:47:53.533Z,1.40
2018-12-25T19:50:24.493Z,1.40
2018-12-25T19:52:54.161Z,1.40
2018-12-25T19:55:23.932Z,1.40
2018-12-25T19:57:53.546Z,1.40
2018-12-25T20:00:23.182Z,1.40
2018-12-25T20:02:56.193Z,1.40
2018-12-25T20:05:28.931Z,1.40
2018-12-25T20:08:21.206Z,1.40
2018-12-25T20:11:05.394Z,1.40
2018-12-25T20:13:53.385Z,1.30
2018-12-25T20:16:31.793Z,1.30
2018-12-25T20:19:22.533Z,1.30
2018-12-25T20:22:06.940Z,1.40
2018-12-25T20:24:52.657Z,1.40
2018-12-25T20:27:37.434Z,1.30
2018-12-25T20:30:46.137Z,1.30
2018-12-25T20:33:21.915Z,1.30
2018-12-25T20:36:15.961Z,1.40
2018-12-25T20:39:10.176Z,1.40
2018-12-25T20:42:04.080Z,1.40
2018-12-25T20:44:57.138Z,1.30
2018-12-25T20:47:47.748Z,1.40
2018-12-25T20:50:35.686Z,1.40
2018-12-25T20:53:23.324Z,1.40
2018-12-25T20:56:07.917Z,1.40
2018-12-25T20:58:40.589Z,1.40
2018-12-25T21:01:36.470Z,1.50
2018-12-25T21:04:14.954Z,1.50
2018-12-25T21:07:16.270Z,1.50
2018-12-25T21:10:14.610Z,1.50
2018-12-25T21:13:19.126Z,1.40
2018-12-25T21:16:07.031Z,1.30
2018-12-25T21:18:42.269Z,1.20
2018-12-25T21:21:23.978Z,1.20
2018-12-25T21:24:28.635Z,1.30
2018-12-25T21:27:31.126Z,1.30
2018-12-25T21:30:02.168Z,1.30
2018-12-25T21:32:33.186Z,1.30
2018-12-25T21:35:14.786Z,1.30
2018-12-25T21:37:45.450Z,1.30
2018-12-25T21:40:15.301Z,1.30
2018-12-25T21:42:45.094Z,1.30
2018-12-25T21:45:14.751Z,1.30
2018-12-25T21:47:44.502Z,1.30
2018-12-25T21:50:14.200Z,1.20
2018-12-25T21:52:43.889Z,1.20
2018-12-25T21:55:18.655Z,1.20
2018-12-25T21:57:44.881Z,1.20
2018-12-25T22:00:14.641Z,1.20
2018-12-25T22:02:44.386Z,1.20
2018-12-25T22:05:15.019Z,1.20
2018-12-25T22:07:44.632Z,1.20
2018-12-25T22:10:14.346Z,1.20
2018-12-25T22:12:43.974Z,1.20
2018-12-25T22:15:15.238Z,1.10
2018-12-25T22:17:44.831Z,1.10
2018-12-25T22:20:20.162Z,1.10
2018-12-25T22:22:49.794Z,1.20
2018-12-25T22:25:28.398Z,1.10
2018-12-25T22:27:50.850Z,1.10
2018-12-25T22:30:20.521Z,1.10
2018-12-25T22:32:50.258Z,1.00
2018-12-25T22:35:19.966Z,0.90
2018-12-25T22:37:49.712Z,1.00
2018-12-25T22:40:20.301Z,0.90
2018-12-25T22:42:50.115Z,0.90
2018-12-25T22:45:19.725Z,0.90
2018-12-25T22:47:49.356Z,0.90
2018-12-25T22:50:18.961Z,1.00
2018-12-25T22:52:50.212Z,1.00
2018-12-25T22:55:19.820Z,1.00
2018-12-25T22:57:49.544Z,1.00
2018-12-25T23:00:20.389Z,0.90
2018-12-25T23:02:50.017Z,0.90
2018-12-25T23:05:19.624Z,0.90
2018-12-25T23:07:49.251Z,1.00
2018-12-25T23:10:19.061Z,1.00
2018-12-25T23:12:48.698Z,1.00
2018-12-25T23:15:18.301Z,1.00
2018-12-25T23:17:48.497Z,0.90
2018-12-25T23:20:18.096Z,0.90
2018-12-25T23:22:48.302Z,0.90
2018-12-25T23:25:18.321Z,1.00
2018-12-25T23:27:47.951Z,1.00
2018-12-25T23:30:17.601Z,1.00
2018-12-25T23:32:47.224Z,0.90
2018-12-25T23:35:16.933Z,0.90
2018-12-25T23:37:46.565Z,0.90
2018-12-25T23:40:16.161Z,0.90
2018-12-25T23:42:45.804Z,0.80
2018-12-25T23:45:21.953Z,0.90
2018-12-25T23:47:51.577Z,0.90
2018-12-25T23:50:22.781Z,0.90
2018-12-25T23:52:52.436Z,0.90
2018-12-25T23:55:22.029Z,0.80
2018-12-25T23:57:51.644Z,0.80
